sensor_id;sensor_type;location;lat;lon;timestamp;pressure;altitude;pressure_sealevel;temperature;humidity
49723;BME280;43484;43.608;1.458;2023-02-20T00:00:31;100620.38;;;9.58;100.00
49723;BME280;43484;43.608;1.458;2023-02-20T00:02:58;100616.09;;;9.57;100.00
49723;BME280;43484;43.608;1.458;2023-02-20T00:05:25;100620.75;;;9.48;100.00
49723;BME280;43484;43.608;1.458;2023-02-20T00:07:51;100634.06;;;9.41;100.00
49723;BME280;43484;43.608;1.458;2023-02-20T00:10:18;100615.38;;;9.42;100.00
49723;BME280;43484;43.608;1.458;2023-02-20T00:12:45;100621.28;;;9.41;100.00
49723;BME280;43484;43.608;1.458;2023-02-20T00:15:14;100617.19;;;9.45;100.00
49723;BME280;43484;43.608;1.458;2023-02-20T00:17:42;100625.53;;;9.41;100.00
49723;BME280;43484;43.608;1.458;2023-02-20T00:20:10;100628.16;;;9.42;100.00
49723;BME280;43484;43.608;1.458;2023-02-20T00:22:37;100619.47;;;9.39;100.00
49723;BME280;43484;43.608;1.458;2023-02-20T00:25:04;100627.66;;;9.32;100.00
49723;BME280;43484;43.608;1.458;2023-02-20T00:27:30;100622.47;;;9.30;100.00
49723;BME280;43484;43.608;1.458;2023-02-20T00:29:57;100617.88;;;9.23;100.00
49723;BME280;43484;43.608;1.458;2023-02-20T00:32:23;100613.28;;;9.16;100.00
49723;BME280;43484;43.608;1.458;2023-02-20T00:34:50;100611.97;;;9.07;100.00
49723;BME280;43484;43.608;1.458;2023-02-20T00:37:17;100601.03;;;9.09;100.00
49723;BME280;43484;43.608;1.458;2023-02-20T00:39:43;100593.25;;;9.08;100.00
49723;BME280;43484;43.608;1.458;2023-02-20T00:42:10;100587.16;;;9.04;100.00
49723;BME280;43484;43.608;1.458;2023-02-20T00:44:37;100589.03;;;9.08;100.00
49723;BME280;43484;43.608;1.458;2023-02-20T00:47:04;100593.75;;;8.99;100.00
49723;BME280;43484;43.608;1.458;2023-02-20T00:49:30;100596.38;;;9.01;100.00
49723;BME280;43484;43.608;1.458;2023-02-20T00:51:57;100590.88;;;9.11;100.00
49723;BME280;43484;43.608;1.458;2023-02-20T00:54:23;100595.94;;;9.09;100.00
49723;BME280;43484;43.608;1.458;2023-02-20T00:56:50;100593.50;;;8.95;100.00
49723;BME280;43484;43.608;1.458;2023-02-20T00:59:17;100592.13;;;8.83;100.00
49723;BME280;43484;43.608;1.458;2023-02-20T01:01:43;100594.16;;;8.73;100.00
49723;BME280;43484;43.608;1.458;2023-02-20T01:04:10;100588.50;;;8.62;100.00
49723;BME280;43484;43.608;1.458;2023-02-20T01:06:36;100584.22;;;8.61;100.00
49723;BME280;43484;43.608;1.458;2023-02-20T01:09:03;100578.16;;;8.59;100.00
49723;BME280;43484;43.608;1.458;2023-02-20T01:11:30;100569.78;;;8.62;100.00
49723;BME280;43484;43.608;1.458;2023-02-20T01:13:56;100554.38;;;8.60;100.00
49723;BME280;43484;43.608;1.458;2023-02-20T01:16:23;100552.63;;;8.59;100.00
49723;BME280;43484;43.608;1.458;2023-02-20T01:18:51;100548.31;;;8.58;100.00
49723;BME280;43484;43.608;1.458;2023-02-20T01:21:18;100553.13;;;8.52;100.00
49723;BME280;43484;43.608;1.458;2023-02-20T01:23:45;100548.97;;;8.54;100.00
49723;BME280;43484;43.608;1.458;2023-02-20T01:26:12;100540.53;;;8.55;100.00
49723;BME280;43484;43.608;1.458;2023-02-20T01:28:43;100538.81;;;8.56;100.00
49723;BME280;43484;43.608;1.458;2023-02-20T01:31:11;100539.00;;;8.59;100.00
49723;BME280;43484;43.608;1.458;2023-02-20T01:33:41;100544.81;;;8.56;100.00
49723;BME280;43484;43.608;1.458;2023-02-20T01:36:08;100543.84;;;8.54;100.00
49723;BME280;43484;43.608;1.458;2023-02-20T01:38:35;100537.91;;;8.54;100.00
49723;BME280;43484;43.608;1.458;2023-02-20T01:41:02;100548.91;;;8.53;100.00
49723;BME280;43484;43.608;1.458;2023-02-20T01:43:29;100541.44;;;8.57;100.00
49723;BME280;43484;43.608;1.458;2023-02-20T01:49:01;100541.09;;;8.50;100.00
49723;BME280;43484;43.608;1.458;2023-02-20T01:51:30;100545.66;;;8.39;100.00
49723;BME280;43484;43.608;1.458;2023-02-20T01:53:58;100544.13;;;8.43;100.00
49723;BME280;43484;43.608;1.458;2023-02-20T01:56:25;100537.22;;;8.40;100.00
49723;BME280;43484;43.608;1.458;2023-02-20T01:58:52;100537.50;;;8.29;100.00
49723;BME280;43484;43.608;1.458;2023-02-20T02:01:19;100524.97;;;8.33;100.00
49723;BME280;43484;43.608;1.458;2023-02-20T02:03:48;100527.66;;;8.36;100.00
49723;BME280;43484;43.608;1.458;2023-02-20T02:06:21;100527.00;;;8.40;100.00
49723;BME280;43484;43.608;1.458;2023-02-20T02:08:51;100530.84;;;8.32;100.00
49723;BME280;43484;43.608;1.458;2023-02-20T02:11:21;100522.34;;;8.32;100.00
49723;BME280;43484;43.608;1.458;2023-02-20T02:13:49;100527.84;;;8.23;100.00
49723;BME280;43484;43.608;1.458;2023-02-20T02:27:27;100531.34;;;8.09;100.00
49723;BME280;43484;43.608;1.458;2023-02-20T02:30:13;100527.69;;;8.04;100.00
49723;BME280;43484;43.608;1.458;2023-02-20T02:41:35;100524.56;;;7.76;100.00
49723;BME280;43484;43.608;1.458;2023-02-20T02:47:10;100506.31;;;7.68;100.00
49723;BME280;43484;43.608;1.458;2023-02-20T02:52:12;100500.19;;;7.65;100.00
49723;BME280;43484;43.608;1.458;2023-02-20T02:54:59;100506.00;;;7.62;100.00
49723;BME280;43484;43.608;1.458;2023-02-20T02:57:26;100499.72;;;7.56;100.00
49723;BME280;43484;43.608;1.458;2023-02-20T03:05:21;100496.06;;;7.51;100.00
49723;BME280;43484;43.608;1.458;2023-02-20T03:07:54;100500.66;;;7.42;100.00
49723;BME280;43484;43.608;1.458;2023-02-20T03:10:24;100501.53;;;7.42;100.00
49723;BME280;43484;43.608;1.458;2023-02-20T03:13:03;100503.72;;;7.35;100.00
49723;BME280;43484;43.608;1.458;2023-02-20T03:15:35;100500.75;;;7.27;100.00
49723;BME280;43484;43.608;1.458;2023-02-20T03:20:55;100488.56;;;7.38;100.00
49723;BME280;43484;43.608;1.458;2023-02-20T03:23:26;100489.59;;;7.41;100.00
49723;BME280;43484;43.608;1.458;2023-02-20T03:26:03;100490.31;;;7.39;100.00
49723;BME280;43484;43.608;1.458;2023-02-20T03:28:42;100484.66;;;7.44;100.00
49723;BME280;43484;43.608;1.458;2023-02-20T03:31:24;100482.50;;;7.52;100.00
49723;BME280;43484;43.608;1.458;2023-02-20T03:34:02;100472.72;;;7.59;100.00
49723;BME280;43484;43.608;1.458;2023-02-20T03:37:02;100469.19;;;7.57;100.00
49723;BME280;43484;43.608;1.458;2023-02-20T03:39:52;100469.69;;;7.67;100.00
49723;BME280;43484;43.608;1.458;2023-02-20T03:42:42;100476.44;;;7.66;100.00
49723;BME280;43484;43.608;1.458;2023-02-20T03:45:29;100477.69;;;7.74;100.00
49723;BME280;43484;43.608;1.458;2023-02-20T03:48:01;100476.59;;;7.69;100.00
49723;BME280;43484;43.608;1.458;2023-02-20T03:50:28;100475.19;;;7.58;100.00
49723;BME280;43484;43.608;1.458;2023-02-20T03:52:55;100479.88;;;7.67;100.00
49723;BME280;43484;43.608;1.458;2023-02-20T03:55:22;100484.56;;;7.59;100.00
49723;BME280;43484;43.608;1.458;2023-02-20T03:57:54;100484.25;;;7.53;100.00
49723;BME280;43484;43.608;1.458;2023-02-20T04:00:32;100483.69;;;7.42;100.00
49723;BME280;43484;43.608;1.458;2023-02-20T04:03:06;100490.16;;;7.36;100.00
49723;BME280;43484;43.608;1.458;2023-02-20T04:05:37;100490.63;;;7.29;100.00
49723;BME280;43484;43.608;1.458;2023-02-20T04:08:09;100480.81;;;7.20;100.00
49723;BME280;43484;43.608;1.458;2023-02-20T04:10:43;100484.66;;;7.12;100.00
49723;BME280;43484;43.608;1.458;2023-02-20T04:13:12;100484.50;;;7.09;100.00
49723;BME280;43484;43.608;1.458;2023-02-20T04:15:41;100481.22;;;7.12;100.00
49723;BME280;43484;43.608;1.458;2023-02-20T04:18:14;100488.31;;;7.01;100.00
49723;BME280;43484;43.608;1.458;2023-02-20T04:20:50;100483.13;;;7.00;100.00
49723;BME280;43484;43.608;1.458;2023-02-20T04:23:18;100489.72;;;6.96;100.00
49723;BME280;43484;43.608;1.458;2023-02-20T04:25:50;100486.47;;;6.99;100.00
49723;BME280;43484;43.608;1.458;2023-02-20T04:28:19;100481.91;;;6.93;100.00
49723;BME280;43484;43.608;1.458;2023-02-20T04:30:46;100483.91;;;6.99;100.00
49723;BME280;43484;43.608;1.458;2023-02-20T04:33:13;100483.13;;;7.00;100.00
49723;BME280;43484;43.608;1.458;2023-02-20T04:35:41;100483.38;;;7.04;100.00
49723;BME280;43484;43.608;1.458;2023-02-20T04:38:08;100485.19;;;7.07;100.00
49723;BME280;43484;43.608;1.458;2023-02-20T04:40:36;100491.16;;;7.07;100.00
49723;BME280;43484;43.608;1.458;2023-02-20T04:43:03;100493.41;;;7.01;100.00
49723;BME280;43484;43.608;1.458;2023-02-20T04:45:29;100489.84;;;7.30;100.00
49723;BME280;43484;43.608;1.458;2023-02-20T04:47:56;100504.41;;;7.16;100.00
49723;BME280;43484;43.608;1.458;2023-02-20T04:50:29;100506.59;;;7.10;100.00
49723;BME280;43484;43.608;1.458;2023-02-20T04:52:57;100516.25;;;7.00;100.00
49723;BME280;43484;43.608;1.458;2023-02-20T04:55:24;100524.94;;;6.89;100.00
49723;BME280;43484;43.608;1.458;2023-02-20T04:57:51;100532.06;;;6.94;100.00
49723;BME280;43484;43.608;1.458;2023-02-20T05:00:24;100524.19;;;6.90;100.00
49723;BME280;43484;43.608;1.458;2023-02-20T05:02:51;100526.72;;;6.90;100.00
49723;BME280;43484;43.608;1.458;2023-02-20T05:05:19;100527.94;;;6.82;100.00
49723;BME280;43484;43.608;1.458;2023-02-20T05:07:46;100528.44;;;6.75;100.00
49723;BME280;43484;43.608;1.458;2023-02-20T05:10:15;100535.88;;;6.72;100.00
49723;BME280;43484;43.608;1.458;2023-02-20T05:12:42;100529.22;;;6.74;100.00
49723;BME280;43484;43.608;1.458;2023-02-20T05:15:09;100531.75;;;6.74;100.00
49723;BME280;43484;43.608;1.458;2023-02-20T05:17:36;100519.84;;;6.73;100.00
49723;BME280;43484;43.608;1.458;2023-02-20T05:20:04;100520.22;;;6.80;100.00
49723;BME280;43484;43.608;1.458;2023-02-20T05:22:30;100520.59;;;6.72;100.00
49723;BME280;43484;43.608;1.458;2023-02-20T05:24:58;100523.34;;;6.75;100.00
49723;BME280;43484;43.608;1.458;2023-02-20T05:27:25;100514.75;;;6.73;100.00
49723;BME280;43484;43.608;1.458;2023-02-20T05:29:53;100517.44;;;6.76;100.00
49723;BME280;43484;43.608;1.458;2023-02-20T05:32:22;100527.88;;;6.80;100.00
49723;BME280;43484;43.608;1.458;2023-02-20T05:34:49;100541.16;;;6.75;100.00
49723;BME280;43484;43.608;1.458;2023-02-20T05:37:17;100546.97;;;6.58;100.00
49723;BME280;43484;43.608;1.458;2023-02-20T05:39:47;100553.38;;;6.66;100.00
49723;BME280;43484;43.608;1.458;2023-02-20T05:42:14;100567.59;;;6.62;100.00
49723;BME280;43484;43.608;1.458;2023-02-20T05:44:41;100581.19;;;6.48;100.00
49723;BME280;43484;43.608;1.458;2023-02-20T05:47:08;100583.81;;;6.35;100.00
49723;BME280;43484;43.608;1.458;2023-02-20T05:49:35;100591.13;;;6.29;100.00
49723;BME280;43484;43.608;1.458;2023-02-20T05:52:03;100596.47;;;6.19;100.00
49723;BME280;43484;43.608;1.458;2023-02-20T05:54:37;100605.41;;;6.12;100.00
49723;BME280;43484;43.608;1.458;2023-02-20T05:57:04;100596.63;;;6.07;100.00
49723;BME280;43484;43.608;1.458;2023-02-20T05:59:31;100607.03;;;5.97;100.00
49723;BME280;43484;43.608;1.458;2023-02-20T06:01:58;100595.72;;;5.92;100.00
49723;BME280;43484;43.608;1.458;2023-02-20T06:04:26;100602.97;;;5.86;100.00
49723;BME280;43484;43.608;1.458;2023-02-20T06:06:53;100608.25;;;5.76;100.00
49723;BME280;43484;43.608;1.458;2023-02-20T06:09:19;100601.06;;;5.69;100.00
49723;BME280;43484;43.608;1.458;2023-02-20T06:11:51;100597.53;;;5.67;100.00
49723;BME280;43484;43.608;1.458;2023-02-20T06:14:20;100597.63;;;5.69;100.00
49723;BME280;43484;43.608;1.458;2023-02-20T06:16:47;100587.88;;;5.62;100.00
49723;BME280;43484;43.608;1.458;2023-02-20T06:19:18;100576.91;;;5.63;100.00
49723;BME280;43484;43.608;1.458;2023-02-20T06:21:49;100574.91;;;5.57;100.00
49723;BME280;43484;43.608;1.458;2023-02-20T06:24:16;100571.56;;;5.58;100.00
49723;BME280;43484;43.608;1.458;2023-02-20T06:26:43;100574.91;;;5.57;100.00
49723;BME280;43484;43.608;1.458;2023-02-20T06:29:11;100571.56;;;5.58;100.00
49723;BME280;43484;43.608;1.458;2023-02-20T06:31:38;100560.50;;;5.58;100.00
49723;BME280;43484;43.608;1.458;2023-02-20T06:34:06;100548.59;;;5.57;100.00
49723;BME280;43484;43.608;1.458;2023-02-20T06:36:35;100542.84;;;5.59;100.00
49723;BME280;43484;43.608;1.458;2023-02-20T06:39:04;100545.81;;;5.67;100.00
49723;BME280;43484;43.608;1.458;2023-02-20T06:41:31;100554.91;;;5.49;100.00
49723;BME280;43484;43.608;1.458;2023-02-20T06:43:58;100555.63;;;5.33;100.00
49723;BME280;43484;43.608;1.458;2023-02-20T06:46:25;100551.59;;;5.37;100.00
49723;BME280;43484;43.608;1.458;2023-02-20T06:48:53;100557.94;;;5.43;100.00
49723;BME280;43484;43.608;1.458;2023-02-20T06:51:24;100563.94;;;5.58;100.00
49723;BME280;43484;43.608;1.458;2023-02-20T06:53:51;100574.50;;;5.51;100.00
49723;BME280;43484;43.608;1.458;2023-02-20T06:56:20;100579.59;;;5.51;100.00
49723;BME280;43484;43.608;1.458;2023-02-20T06:58:48;100577.84;;;5.50;100.00
49723;BME280;43484;43.608;1.458;2023-02-20T07:01:16;100584.63;;;5.37;100.00
49723;BME280;43484;43.608;1.458;2023-02-20T07:03:45;100583.56;;;5.33;100.00
49723;BME280;43484;43.608;1.458;2023-02-20T07:06:12;100574.16;;;5.45;100.00
49723;BME280;43484;43.608;1.458;2023-02-20T07:08:39;100568.28;;;5.46;100.00
49723;BME280;43484;43.608;1.458;2023-02-20T07:11:06;100572.09;;;5.40;100.00
49723;BME280;43484;43.608;1.458;2023-02-20T07:13:33;100571.34;;;5.41;100.00
49723;BME280;43484;43.608;1.458;2023-02-20T07:16:00;100574.94;;;5.44;100.00
49723;BME280;43484;43.608;1.458;2023-02-20T07:18:26;100557.16;;;5.44;100.00
49723;BME280;43484;43.608;1.458;2023-02-20T07:20:54;100559.19;;;5.50;100.00
49723;BME280;43484;43.608;1.458;2023-02-20T07:23:21;100557.69;;;5.53;100.00
49723;BME280;43484;43.608;1.458;2023-02-20T07:25:48;100561.91;;;5.53;100.00
49723;BME280;43484;43.608;1.458;2023-02-20T07:28:16;100561.41;;;5.58;100.00
49723;BME280;43484;43.608;1.458;2023-02-20T07:30:44;100565.56;;;5.71;100.00
49723;BME280;43484;43.608;1.458;2023-02-20T07:33:12;100566.97;;;5.66;100.00
49723;BME280;43484;43.608;1.458;2023-02-20T07:35:39;100569.75;;;5.70;100.00
49723;BME280;43484;43.608;1.458;2023-02-20T07:38:05;100577.56;;;5.73;100.00
49723;BME280;43484;43.608;1.458;2023-02-20T07:40:32;100587.16;;;5.77;100.00
49723;BME280;43484;43.608;1.458;2023-02-20T07:42:59;100577.63;;;5.88;100.00
49723;BME280;43484;43.608;1.458;2023-02-20T07:45:26;100576.44;;;5.96;100.00
49723;BME280;43484;43.608;1.458;2023-02-20T07:47:53;100569.66;;;5.96;100.00
49723;BME280;43484;43.608;1.458;2023-02-20T07:50:20;100571.06;;;5.91;100.00
49723;BME280;43484;43.608;1.458;2023-02-20T07:52:46;100560.72;;;6.03;100.00
49723;BME280;43484;43.608;1.458;2023-02-20T07:55:17;100561.19;;;6.10;100.00
49723;BME280;43484;43.608;1.458;2023-02-20T07:57:46;100559.25;;;6.06;100.00
49723;BME280;43484;43.608;1.458;2023-02-20T08:00:15;100558.72;;;6.12;100.00
49723;BME280;43484;43.608;1.458;2023-02-20T08:02:41;100554.88;;;6.18;100.00
49723;BME280;43484;43.608;1.458;2023-02-20T08:05:09;100564.63;;;6.25;100.00
49723;BME280;43484;43.608;1.458;2023-02-20T08:07:36;100561.81;;;6.21;100.00
49723;BME280;43484;43.608;1.458;2023-02-20T08:10:04;100576.44;;;6.25;100.00
49723;BME280;43484;43.608;1.458;2023-02-20T08:12:31;100576.09;;;6.33;100.00
49723;BME280;43484;43.608;1.458;2023-02-20T08:14:58;100581.44;;;6.38;100.00
49723;BME280;43484;43.608;1.458;2023-02-20T08:17:24;100601.13;;;6.41;100.00
49723;BME280;43484;43.608;1.458;2023-02-20T08:20:02;100605.22;;;6.53;100.00
49723;BME280;43484;43.608;1.458;2023-02-20T08:22:30;100612.97;;;6.40;100.00
49723;BME280;43484;43.608;1.458;2023-02-20T08:25:07;100629.53;;;6.33;100.00
49723;BME280;43484;43.608;1.458;2023-02-20T08:27:34;100641.63;;;6.23;100.00
49723;BME280;43484;43.608;1.458;2023-02-20T08:30:10;100642.78;;;6.28;100.00
49723;BME280;43484;43.608;1.458;2023-02-20T08:32:37;100647.06;;;6.14;100.00
49723;BME280;43484;43.608;1.458;2023-02-20T08:35:04;100644.16;;;6.08;100.00
49723;BME280;43484;43.608;1.458;2023-02-20T08:37:31;100661.75;;;5.91;100.00
49723;BME280;43484;43.608;1.458;2023-02-20T08:39:58;100658.56;;;5.95;100.00
49723;BME280;43484;43.608;1.458;2023-02-20T08:42:25;100648.56;;;6.11;100.00
49723;BME280;43484;43.608;1.458;2023-02-20T08:44:51;100643.13;;;6.19;100.00
49723;BME280;43484;43.608;1.458;2023-02-20T08:47:19;100643.25;;;6.35;100.00
49723;BME280;43484;43.608;1.458;2023-02-20T08:49:46;100648.16;;;6.32;100.00
49723;BME280;43484;43.608;1.458;2023-02-20T08:52:14;100659.34;;;6.21;100.00
49723;BME280;43484;43.608;1.458;2023-02-20T08:54:45;100641.13;;;6.28;100.00
49723;BME280;43484;43.608;1.458;2023-02-20T08:57:16;100640.44;;;6.31;100.00
49723;BME280;43484;43.608;1.458;2023-02-20T08:59:44;100641.75;;;6.24;100.00
49723;BME280;43484;43.608;1.458;2023-02-20T09:02:19;100637.00;;;6.16;100.00
49723;BME280;43484;43.608;1.458;2023-02-20T09:04:46;100626.00;;;6.17;100.00
49723;BME280;43484;43.608;1.458;2023-02-20T09:07:13;100614.69;;;6.12;100.00
49723;BME280;43484;43.608;1.458;2023-02-20T09:09:40;100607.16;;;6.28;100.00
49723;BME280;43484;43.608;1.458;2023-02-20T09:12:07;100599.63;;;6.44;100.00
49723;BME280;43484;43.608;1.458;2023-02-20T09:14:35;100592.78;;;6.58;100.00
49723;BME280;43484;43.608;1.458;2023-02-20T09:17:02;100586.28;;;6.63;100.00
49723;BME280;43484;43.608;1.458;2023-02-20T09:19:28;100592.94;;;6.75;100.00
49723;BME280;43484;43.608;1.458;2023-02-20T09:21:55;100608.56;;;6.96;100.00
49723;BME280;43484;43.608;1.458;2023-02-20T09:24:21;100623.75;;;6.94;100.00
49723;BME280;43484;43.608;1.458;2023-02-20T09:26:48;100629.25;;;7.02;100.00
49723;BME280;43484;43.608;1.458;2023-02-20T09:29:15;100641.53;;;7.09;100.00
49723;BME280;43484;43.608;1.458;2023-02-20T09:31:41;100639.97;;;7.11;100.00
49723;BME280;43484;43.608;1.458;2023-02-20T09:34:08;100641.50;;;7.23;100.00
49723;BME280;43484;43.608;1.458;2023-02-20T09:36:35;100644.84;;;7.22;100.00
49723;BME280;43484;43.608;1.458;2023-02-20T09:39:02;100638.94;;;7.38;100.00
49723;BME280;43484;43.608;1.458;2023-02-20T09:41:45;100633.84;;;7.38;100.00
49723;BME280;43484;43.608;1.458;2023-02-20T09:47:23;100630.28;;;7.50;100.00
49723;BME280;43484;43.608;1.458;2023-02-20T09:49:45;100643.91;;;7.51;100.00
49723;BME280;43484;43.608;1.458;2023-02-20T09:52:13;100630.47;;;7.70;100.00
49723;BME280;43484;43.608;1.458;2023-02-20T09:54:49;100640.50;;;7.67;100.00
49723;BME280;43484;43.608;1.458;2023-02-20T09:57:21;100646.78;;;7.57;100.00
49723;BME280;43484;43.608;1.458;2023-02-20T10:00:02;100639.84;;;7.54;100.00
49723;BME280;43484;43.608;1.458;2023-02-20T10:02:36;100636.19;;;7.65;100.00
49723;BME280;43484;43.608;1.458;2023-02-20T10:05:10;100631.13;;;7.82;100.00
49723;BME280;43484;43.608;1.458;2023-02-20T10:07:39;100627.13;;;7.87;100.00
49723;BME280;43484;43.608;1.458;2023-02-20T10:15:29;100626.25;;;8.18;100.00
49723;BME280;43484;43.608;1.458;2023-02-20T10:25:37;100639.63;;;8.46;100.00
49723;BME280;43484;43.608;1.458;2023-02-20T10:28:11;100636.53;;;8.52;100.00
49723;BME280;43484;43.608;1.458;2023-02-20T10:30:45;100635.63;;;8.51;100.00
49723;BME280;43484;43.608;1.458;2023-02-20T10:33:31;100631.63;;;8.56;100.00
49723;BME280;43484;43.608;1.458;2023-02-20T10:36:23;100628.59;;;8.63;100.00
49723;BME280;43484;43.608;1.458;2023-02-20T10:39:07;100611.00;;;8.69;100.00
49723;BME280;43484;43.608;1.458;2023-02-20T10:44:30;100634.53;;;8.98;100.00
49723;BME280;43484;43.608;1.458;2023-02-20T10:47:30;100629.78;;;9.05;100.00
49723;BME280;43484;43.608;1.458;2023-02-20T10:52:35;100640.00;;;9.23;100.00
49723;BME280;43484;43.608;1.458;2023-02-20T10:55:16;100640.75;;;9.20;100.00
49723;BME280;43484;43.608;1.458;2023-02-20T11:00:35;100631.75;;;9.46;100.00
49723;BME280;43484;43.608;1.458;2023-02-20T11:03:08;100622.94;;;9.58;100.00
49723;BME280;43484;43.608;1.458;2023-02-20T11:05:42;100620.81;;;9.67;100.00
49723;BME280;43484;43.608;1.458;2023-02-20T11:08:10;100610.38;;;9.82;100.00
49723;BME280;43484;43.608;1.458;2023-02-20T11:10:37;100610.78;;;9.91;100.00
49723;BME280;43484;43.608;1.458;2023-02-20T11:13:08;100604.25;;;9.97;100.00
49723;BME280;43484;43.608;1.458;2023-02-20T11:15:41;100602.19;;;10.08;100.00
49723;BME280;43484;43.608;1.458;2023-02-20T11:18:19;100605.16;;;10.17;100.00
49723;BME280;43484;43.608;1.458;2023-02-20T11:20:48;100608.19;;;10.28;100.00
49723;BME280;43484;43.608;1.458;2023-02-20T11:23:35;100607.28;;;10.46;100.00
49723;BME280;43484;43.608;1.458;2023-02-20T11:29:14;100622.34;;;10.59;100.00
49723;BME280;43484;43.608;1.458;2023-02-20T11:31:43;100622.56;;;10.65;100.00
49723;BME280;43484;43.608;1.458;2023-02-20T11:34:19;100626.19;;;10.70;100.00
49723;BME280;43484;43.608;1.458;2023-02-20T11:36:53;100622.47;;;10.83;100.00
49723;BME280;43484;43.608;1.458;2023-02-20T11:39:26;100632.97;;;10.89;100.00
49723;BME280;43484;43.608;1.458;2023-02-20T11:42:23;100644.53;;;11.00;100.00
49723;BME280;43484;43.608;1.458;2023-02-20T11:45:14;100653.41;;;11.08;100.00
49723;BME280;43484;43.608;1.458;2023-02-20T11:47:43;100645.78;;;11.09;100.00
49723;BME280;43484;43.608;1.458;2023-02-20T11:50:19;100646.34;;;11.02;100.00
49723;BME280;43484;43.608;1.458;2023-02-20T11:52:58;100637.50;;;11.16;100.00
49723;BME280;43484;43.608;1.458;2023-02-20T11:55:25;100630.22;;;11.27;100.00
49723;BME280;43484;43.608;1.458;2023-02-20T11:57:53;100633.16;;;11.36;100.00
49723;BME280;43484;43.608;1.458;2023-02-20T12:00:25;100637.88;;;11.48;100.00
49723;BME280;43484;43.608;1.458;2023-02-20T12:03:10;100642.44;;;11.55;100.00
49723;BME280;43484;43.608;1.458;2023-02-20T12:08:33;100631.16;;;11.72;100.00
49723;BME280;43484;43.608;1.458;2023-02-20T12:13:39;100632.72;;;11.90;100.00
49723;BME280;43484;43.608;1.458;2023-02-20T12:16:25;100624.38;;;11.97;100.00
49723;BME280;43484;43.608;1.458;2023-02-20T12:21:38;100619.88;;;11.90;100.00
49723;BME280;43484;43.608;1.458;2023-02-20T12:26:51;100606.81;;;12.08;100.00
49723;BME280;43484;43.608;1.458;2023-02-20T12:35:12;100608.84;;;12.41;100.00
49723;BME280;43484;43.608;1.458;2023-02-20T12:46:14;100597.28;;;12.79;100.00
49723;BME280;43484;43.608;1.458;2023-02-20T12:59:30;100591.03;;;12.98;100.00
49723;BME280;43484;43.608;1.458;2023-02-20T13:02:19;100586.06;;;13.02;100.00
49723;BME280;43484;43.608;1.458;2023-02-20T13:05:10;100583.22;;;13.21;100.00
49723;BME280;43484;43.608;1.458;2023-02-20T13:07:51;100584.47;;;13.34;100.00
49723;BME280;43484;43.608;1.458;2023-02-20T13:10:27;100576.34;;;13.48;100.00
49723;BME280;43484;43.608;1.458;2023-02-20T13:12:53;100575.28;;;13.42;100.00
49723;BME280;43484;43.608;1.458;2023-02-20T13:20:40;100561.91;;;13.53;100.00
49723;BME280;43484;43.608;1.458;2023-02-20T13:25:47;100558.56;;;13.56;100.00
49723;BME280;43484;43.608;1.458;2023-02-20T13:28:34;100551.69;;;13.56;100.00
49723;BME280;43484;43.608;1.458;2023-02-20T13:33:32;100544.78;;;13.85;100.00
49723;BME280;43484;43.608;1.458;2023-02-20T13:36:03;100544.47;;;14.04;100.00
49723;BME280;43484;43.608;1.458;2023-02-20T13:38:30;100539.41;;;14.09;100.00
49723;BME280;43484;43.608;1.458;2023-02-20T13:43:35;100534.66;;;14.24;100.00
49723;BME280;43484;43.608;1.458;2023-02-20T13:56:16;100512.72;;;14.38;100.00
49723;BME280;43484;43.608;1.458;2023-02-20T13:58:44;100507.72;;;14.44;100.00
49723;BME280;43484;43.608;1.458;2023-02-20T14:01:11;100502.75;;;14.51;100.00
49723;BME280;43484;43.608;1.458;2023-02-20T14:03:38;100496.97;;;14.60;100.00
49723;BME280;43484;43.608;1.458;2023-02-20T14:06:15;100490.53;;;14.78;100.00
49723;BME280;43484;43.608;1.458;2023-02-20T14:08:44;100486.97;;;14.73;100.00
49723;BME280;43484;43.608;1.458;2023-02-20T14:11:26;100486.28;;;14.82;100.00
49723;BME280;43484;43.608;1.458;2023-02-20T14:13:55;100486.63;;;14.97;100.00
49723;BME280;43484;43.608;1.458;2023-02-20T14:16:29;100483.22;;;14.98;100.00
49723;BME280;43484;43.608;1.458;2023-02-20T14:19:05;100477.00;;;14.88;100.00
49723;BME280;43484;43.608;1.458;2023-02-20T14:21:34;100479.00;;;15.01;100.00
49723;BME280;43484;43.608;1.458;2023-02-20T14:24:20;100479.63;;;14.91;100.00
49723;BME280;43484;43.608;1.458;2023-02-20T14:26:47;100486.44;;;14.88;100.00
49723;BME280;43484;43.608;1.458;2023-02-20T14:29:21;100478.03;;;14.96;100.00
49723;BME280;43484;43.608;1.458;2023-02-20T14:31:52;100470.94;;;14.88;100.00
49723;BME280;43484;43.608;1.458;2023-02-20T14:34:51;100471.22;;;15.00;100.00
49723;BME280;43484;43.608;1.458;2023-02-20T14:37:28;100467.03;;;15.05;100.00
49723;BME280;43484;43.608;1.458;2023-02-20T14:42:42;100460.69;;;15.31;100.00
49723;BME280;43484;43.608;1.458;2023-02-20T14:45:20;100461.63;;;15.35;100.00
49723;BME280;43484;43.608;1.458;2023-02-20T14:47:55;100459.19;;;15.41;100.00
49723;BME280;43484;43.608;1.458;2023-02-20T14:50:34;100454.09;;;15.42;100.00
49723;BME280;43484;43.608;1.458;2023-02-20T14:53:16;100460.06;;;15.41;100.00
49723;BME280;43484;43.608;1.458;2023-02-20T14:55:43;100454.88;;;15.40;100.00
49723;BME280;43484;43.608;1.458;2023-02-20T14:58:13;100448.06;;;15.43;100.00
49723;BME280;43484;43.608;1.458;2023-02-20T15:00:43;100443.91;;;15.51;100.00
49723;BME280;43484;43.608;1.458;2023-02-20T15:03:19;100431.94;;;15.55;100.00
49723;BME280;43484;43.608;1.458;2023-02-20T15:05:59;100426.97;;;15.64;100.00
49723;BME280;43484;43.608;1.458;2023-02-20T15:08:32;100421.78;;;15.64;100.00
49723;BME280;43484;43.608;1.458;2023-02-20T15:11:06;100427.88;;;15.67;100.00